Time;durP1;ratioP1;P1;durP2;ratioP2;P2;SDS_P1;SDS_P2;PMS_P1;PMS_P2;Temp;Humidity;BMP_temperature;BMP_pressure;BME280_temperature;BME280_humidity;BME280_pressure;Samples;Min_cycle;Max_cycle;Signal;HPM_P1;HPM_P2
2021/12/06 00:02:00;;;;;;;22.27;10.80;;;1.60;99.90;;;;;;5058117;28;20025;-81
2021/12/06 00:04:32;;;;;;;20.83;10.98;;;1.50;99.90;;;;;;5056903;28;20021;-81
2021/12/06 00:07:02;;;;;;;24.80;11.48;;;1.40;99.90;;;;;;5058075;28;20025;-80
2021/12/06 00:09:29;;;;;;;29.10;12.30;;;1.30;99.90;;;;;;5057807;28;20040;-81
2021/12/06 00:12:01;;;;;;;22.63;12.13;;;1.20;99.90;;;;;;5058053;28;20108;-81
2021/12/06 00:14:30;;;;;;;23.83;11.60;;;1.10;99.90;;;;;;5058356;28;20029;-81
2021/12/06 00:17:00;;;;;;;24.65;12.38;;;1.10;99.90;;;;;;5057921;28;20020;-81
2021/12/06 00:19:27;;;;;;;21.30;10.68;;;1.00;99.90;;;;;;5057917;28;20017;-81
2021/12/06 00:21:53;;;;;;;18.25;10.13;;;0.90;99.90;;;;;;5057717;28;20036;-81
2021/12/06 00:24:19;;;;;;;23.55;11.48;;;1.00;99.90;;;;;;5057645;28;20037;-81
2021/12/06 00:26:45;;;;;;;20.45;11.00;;;1.00;99.90;;;;;;5057644;28;20434;-81
2021/12/06 00:29:11;;;;;;;21.48;10.40;;;0.80;99.90;;;;;;5057857;28;20032;-81
2021/12/06 00:31:37;;;;;;;20.85;11.40;;;0.80;99.90;;;;;;5057611;28;20029;-81
2021/12/06 00:34:08;;;;;;;22.13;11.40;;;0.70;99.90;;;;;;5057677;28;20080;-81
2021/12/06 00:36:37;;;;;;;20.58;10.45;;;0.70;99.90;;;;;;5057928;28;20029;-81
2021/12/06 00:39:05;;;;;;;20.55;9.82;;;0.70;99.90;;;;;;5057488;28;20017;-81
2021/12/06 00:41:31;;;;;;;23.50;11.57;;;0.60;99.90;;;;;;5056094;28;20021;-81
2021/12/06 00:43:57;;;;;;;19.33;9.65;;;0.60;99.90;;;;;;5057430;28;20029;-81
2021/12/06 00:46:23;;;;;;;21.50;10.73;;;0.30;99.90;;;;;;5057852;28;20017;-81
2021/12/06 00:49:11;;;;;;;18.98;10.07;;;0.30;99.90;;;;;;5056342;28;20017;-81
2021/12/06 00:51:37;;;;;;;16.60;8.05;;;0.50;99.90;;;;;;5058121;28;20104;-81
2021/12/06 00:54:03;;;;;;;16.40;8.57;;;0.60;99.90;;;;;;5056392;28;20024;-81
2021/12/06 00:56:29;;;;;;;19.13;9.25;;;0.70;99.90;;;;;;5057107;28;20021;-81
2021/12/06 00:58:55;;;;;;;17.27;8.75;;;0.80;99.90;;;;;;5057292;28;20023;-81
2021/12/06 01:01:21;;;;;;;13.40;7.18;;;1.10;99.90;;;;;;5057088;28;20032;-81
2021/12/06 01:03:47;;;;;;;17.30;7.65;;;1.30;99.90;;;;;;5057202;28;20055;-81
2021/12/06 01:06:13;;;;;;;13.43;5.82;;;1.40;99.90;;;;;;5057418;28;20028;-81
2021/12/06 01:08:40;;;;;;;17.92;8.10;;;1.30;99.90;;;;;;5057428;28;20013;-81
2021/12/06 01:11:07;;;;;;;12.95;6.72;;;1.40;99.90;;;;;;5057059;28;20028;-81
2021/12/06 01:13:34;;;;;;;13.95;7.60;;;1.40;99.90;;;;;;5057657;28;20461;-81
2021/12/06 01:16:00;;;;;;;13.82;7.57;;;1.40;99.90;;;;;;5057572;28;20064;-81
2021/12/06 01:18:26;;;;;;;13.70;6.85;;;1.40;99.90;;;;;;5057340;28;20032;-81
2021/12/06 01:21:00;;;;;;;14.50;8.10;;;1.50;99.90;;;;;;5057509;28;20021;-81
2021/12/06 01:23:31;;;;;;;15.82;8.02;;;1.60;99.90;;;;;;5055460;28;20029;-82
2021/12/06 01:29:02;;;;;;;17.77;9.35;;;1.80;99.90;;;;;;5057213;28;20025;-81
2021/12/06 01:31:37;;;;;;;17.13;8.65;;;1.80;99.90;;;;;;5057181;28;20021;-81
2021/12/06 01:39:36;;;;;;;26.73;12.10;;;1.90;99.90;;;;;;5056872;28;20051;-82
2021/12/06 01:42:05;;;;;;;24.02;11.45;;;1.90;99.90;;;;;;5056795;28;20021;-81
2021/12/06 01:44:34;;;;;;;22.75;11.57;;;1.90;99.90;;;;;;5056340;28;20400;-82
2021/12/06 01:47:04;;;;;;;22.92;10.95;;;1.90;99.90;;;;;;5056358;28;20812;-81
2021/12/06 01:49:37;;;;;;;20.38;10.95;;;1.90;99.90;;;;;;5056553;28;20435;-81
2021/12/06 01:52:08;;;;;;;22.35;11.90;;;1.80;99.90;;;;;;5056748;28;20025;-81
2021/12/06 01:54:34;;;;;;;24.63;11.65;;;1.90;99.90;;;;;;5055333;28;20029;-81
2021/12/06 01:56:59;;;;;;;23.52;10.85;;;1.80;99.90;;;;;;5058614;28;20032;-81
2021/12/06 01:59:26;;;;;;;22.30;11.35;;;1.90;99.90;;;;;;5056505;28;20029;-81
2021/12/06 02:01:53;;;;;;;21.45;10.48;;;2.00;99.90;;;;;;5055676;28;20021;-81
2021/12/06 02:04:18;;;;;;;24.33;11.43;;;2.00;99.90;;;;;;5056473;28;20029;-82
2021/12/06 02:06:44;;;;;;;25.20;11.93;;;2.10;99.90;;;;;;5056204;28;20032;-81
2021/12/06 02:10:01;;;;;;;26.50;12.57;;;2.10;99.90;;;;;;5056097;28;20074;-81
2021/12/06 02:12:29;;;;;;;29.23;12.23;;;2.10;99.90;;;;;;5055676;28;20029;-81
2021/12/06 02:15:52;;;;;;;30.13;13.63;;;2.20;99.90;;;;;;5055411;28;20087;-81
2021/12/06 02:21:29;;;;;;;25.98;12.02;;;2.20;99.90;;;;;;5056038;28;20415;-81
2021/12/06 02:23:55;;;;;;;25.77;12.32;;;2.30;99.90;;;;;;5055790;28;20025;-81
2021/12/06 02:26:22;;;;;;;24.83;12.65;;;2.20;99.90;;;;;;5054234;28;20029;-81
2021/12/06 02:28:49;;;;;;;24.88;11.70;;;2.10;99.90;;;;;;5055360;28;20021;-81
2021/12/06 02:31:16;;;;;;;25.63;12.50;;;2.10;99.90;;;;;;5054237;28;20021;-81
2021/12/06 02:33:44;;;;;;;26.60;12.60;;;2.10;99.90;;;;;;5055272;28;20049;-81
2021/12/06 02:36:11;;;;;;;24.73;11.65;;;2.10;99.90;;;;;;5055511;28;20029;-81
2021/12/06 02:38:37;;;;;;;29.15;12.68;;;2.10;99.90;;;;;;5055425;28;20107;-81
2021/12/06 02:41:03;;;;;;;20.10;9.52;;;2.20;99.90;;;;;;5055201;28;20045;-81
2021/12/06 02:43:30;;;;;;;27.48;13.05;;;2.20;99.90;;;;;;5055043;28;20412;-81
2021/12/06 02:45:55;;;;;;;34.63;13.05;;;2.20;99.90;;;;;;5055301;28;20040;-81
2021/12/06 02:48:21;;;;;;;27.52;12.77;;;2.20;99.90;;;;;;5055225;28;20070;-81
2021/12/06 02:50:51;;;;;;;27.88;13.10;;;2.20;99.90;;;;;;5055545;28;20020;-81
2021/12/06 02:53:19;;;;;;;25.92;12.77;;;2.20;99.90;;;;;;5055078;28;20074;-81
2021/12/06 02:55:51;;;;;;;27.35;12.50;;;2.20;99.90;;;;;;5055117;28;20040;-81
2021/12/06 02:59:06;;;;;;;26.13;12.23;;;2.10;99.90;;;;;;5054936;28;20025;-81
2021/12/06 03:01:13;;;;;;;25.83;12.45;;;2.10;99.90;;;;;;5050578;28;20044;-81
2021/12/06 03:03:40;;;;;;;29.23;14.10;;;2.10;99.90;;;;;;5054838;28;20035;-81
2021/12/06 03:06:06;;;;;;;28.35;14.27;;;2.10;99.90;;;;;;5053386;28;20047;-81
2021/12/06 03:08:39;;;;;;;30.27;14.10;;;2.10;99.90;;;;;;5054728;28;20455;-81
2021/12/06 03:11:08;;;;;;;31.15;14.77;;;2.10;99.90;;;;;;5054697;28;20045;-81
2021/12/06 03:13:34;;;;;;;31.25;14.48;;;2.20;99.90;;;;;;5034602;28;20683;-81
2021/12/06 03:16:00;;;;;;;32.42;15.05;;;2.10;99.90;;;;;;5034926;28;20040;-81
2021/12/06 03:18:26;;;;;;;31.27;14.77;;;2.20;99.90;;;;;;5034757;28;20021;-81
2021/12/06 03:20:51;;;;;;;31.25;14.52;;;2.20;99.90;;;;;;5034570;28;20044;-81
2021/12/06 03:23:17;;;;;;;29.88;14.65;;;2.20;99.90;;;;;;5034539;28;20033;-81
2021/12/06 03:25:49;;;;;;;29.90;14.18;;;2.20;99.90;;;;;;5034239;28;20033;-81
2021/12/06 03:28:14;;;;;;;28.13;13.80;;;2.20;99.90;;;;;;5034482;28;20044;-81
2021/12/06 03:30:40;;;;;;;28.13;14.02;;;2.30;99.90;;;;;;5034881;28;20021;-81
2021/12/06 03:33:06;;;;;;;34.38;15.50;;;2.30;99.90;;;;;;5034446;28;20374;-81
2021/12/06 03:35:32;;;;;;;33.10;16.17;;;2.40;99.90;;;;;;5034618;28;20048;-81
2021/12/06 03:37:58;;;;;;;36.97;15.98;;;2.40;99.90;;;;;;5035473;28;20022;-81
2021/12/06 03:40:24;;;;;;;36.53;16.02;;;2.50;99.90;;;;;;5036377;28;20057;-81
2021/12/06 03:42:50;;;;;;;39.25;16.17;;;2.50;99.90;;;;;;5051309;28;20056;-81
2021/12/06 03:45:16;;;;;;;40.65;15.07;;;2.50;99.90;;;;;;5056650;28;20121;-82
2021/12/06 03:47:42;;;;;;;37.40;14.55;;;2.50;99.90;;;;;;5055325;28;20121;-81
2021/12/06 03:50:10;;;;;;;40.92;17.10;;;2.50;99.90;;;;;;5056705;28;20057;-81
2021/12/06 03:52:35;;;;;;;38.75;16.77;;;2.50;99.90;;;;;;5055199;28;20029;-81
2021/12/06 03:55:05;;;;;;;39.72;15.60;;;2.50;99.90;;;;;;5052843;28;20036;-81
2021/12/06 03:57:31;;;;;;;43.08;17.88;;;2.50;99.90;;;;;;5054044;28;20025;-81
2021/12/06 03:59:56;;;;;;;37.08;15.90;;;2.50;99.90;;;;;;5054246;28;20031;-81
2021/12/06 04:02:26;;;;;;;43.28;17.92;;;2.60;99.90;;;;;;5054404;28;20032;-81
2021/12/06 04:04:53;;;;;;;41.13;16.80;;;2.50;99.90;;;;;;5055502;28;20366;-81
2021/12/06 04:07:19;;;;;;;41.50;17.02;;;2.60;99.90;;;;;;5056309;28;20035;-81
2021/12/06 04:09:44;;;;;;;36.22;16.10;;;2.50;99.90;;;;;;5056340;28;20036;-81
2021/12/06 04:12:11;;;;;;;42.72;17.17;;;2.60;99.90;;;;;;5056107;28;20068;-81
2021/12/06 04:14:38;;;;;;;40.72;16.98;;;2.60;99.90;;;;;;5056649;28;20021;-81
2021/12/06 04:17:04;;;;;;;42.90;17.17;;;2.60;99.90;;;;;;5056447;28;20075;-81
2021/12/06 04:19:30;;;;;;;40.80;16.27;;;2.50;99.90;;;;;;5055400;28;20393;-81
2021/12/06 04:21:56;;;;;;;41.10;16.42;;;2.60;99.90;;;;;;5055023;28;20036;-80
2021/12/06 04:24:22;;;;;;;44.00;18.27;;;2.60;99.90;;;;;;5054646;28;20021;-81
2021/12/06 04:26:48;;;;;;;41.42;17.15;;;2.60;99.90;;;;;;5054630;28;20049;-81
2021/12/06 04:29:16;;;;;;;39.75;16.42;;;2.60;99.90;;;;;;5055169;28;20033;-80
2021/12/06 04:31:48;;;;;;;43.25;17.73;;;2.60;99.90;;;;;;5055318;28;20061;-81
2021/12/06 04:34:14;;;;;;;44.67;17.50;;;2.60;99.90;;;;;;5055226;28;20465;-81
2021/12/06 04:36:41;;;;;;;39.95;16.95;;;2.70;99.90;;;;;;5054573;28;20060;-81
2021/12/06 04:39:10;;;;;;;49.03;18.63;;;2.60;99.90;;;;;;5058482;28;20031;-81
2021/12/06 04:41:36;;;;;;;43.90;16.98;;;2.60;99.90;;;;;;5058292;28;20043;-81
2021/12/06 04:44:02;;;;;;;43.47;17.75;;;2.60;99.90;;;;;;5059195;28;20022;-81
2021/12/06 04:46:28;;;;;;;39.38;16.70;;;2.60;99.90;;;;;;5058475;28;20054;-81
2021/12/06 04:48:54;;;;;;;39.78;15.82;;;2.60;99.90;;;;;;5056907;28;20024;-81
2021/12/06 04:51:19;;;;;;;40.13;17.75;;;2.70;99.90;;;;;;5058534;28;20102;-81
2021/12/06 04:53:47;;;;;;;44.03;17.25;;;2.70;99.90;;;;;;5058621;28;20166;-81
2021/12/06 04:56:26;;;;;;;45.10;18.00;;;2.70;99.90;;;;;;5058805;28;20017;-81
2021/12/06 04:58:58;;;;;;;42.60;17.30;;;2.70;99.90;;;;;;5058227;28;20047;-81
2021/12/06 05:01:28;;;;;;;44.83;17.23;;;2.70;99.90;;;;;;5058357;28;20028;-81
2021/12/06 05:03:56;;;;;;;42.00;18.13;;;2.70;99.90;;;;;;5058660;28;20021;-80
2021/12/06 05:06:30;;;;;;;42.03;16.58;;;2.80;99.90;;;;;;5058304;28;20024;-81
2021/12/06 05:09:00;;;;;;;45.08;16.48;;;2.80;99.90;;;;;;5058546;28;20036;-81
2021/12/06 05:11:28;;;;;;;44.33;17.58;;;2.80;99.90;;;;;;5058411;28;20021;-81
2021/12/06 05:13:55;;;;;;;43.95;15.77;;;2.70;99.90;;;;;;5058277;28;20108;-81
2021/12/06 05:16:21;;;;;;;42.97;16.88;;;2.80;99.90;;;;;;5056857;28;20112;-81
2021/12/06 05:18:48;;;;;;;47.03;16.80;;;2.80;99.90;;;;;;5058354;28;20107;-81
2021/12/06 05:21:14;;;;;;;36.20;15.18;;;2.80;99.90;;;;;;5056593;28;20021;-81
2021/12/06 05:23:40;;;;;;;33.75;14.32;;;2.80;99.90;;;;;;5057336;28;20377;-81
2021/12/06 05:26:05;;;;;;;39.15;15.75;;;2.80;99.90;;;;;;5057252;28;20025;-81
2021/12/06 05:28:38;;;;;;;39.67;16.00;;;2.70;99.90;;;;;;5057401;28;20036;-81
2021/12/06 05:31:12;;;;;;;34.30;14.63;;;2.80;99.90;;;;;;5058444;28;20464;-81
2021/12/06 05:33:40;;;;;;;49.22;18.27;;;2.90;99.90;;;;;;5058236;28;20460;-81
2021/12/06 05:36:05;;;;;;;43.15;17.00;;;2.80;99.90;;;;;;5056339;28;20075;-81
2021/12/06 05:38:31;;;;;;;38.10;15.98;;;2.90;99.90;;;;;;5057263;28;20025;-81
2021/12/06 05:40:57;;;;;;;43.40;15.93;;;2.90;99.90;;;;;;5057453;28;20432;-81
2021/12/06 05:43:23;;;;;;;37.47;13.68;;;2.90;99.90;;;;;;5072910;28;20503;-81
2021/12/06 05:45:52;;;;;;;40.05;16.13;;;2.90;99.90;;;;;;5057262;28;20048;-81
2021/12/06 05:48:18;;;;;;;37.05;15.15;;;2.90;99.90;;;;;;5057130;28;20429;-81
2021/12/06 05:50:48;;;;;;;40.72;15.43;;;2.80;99.90;;;;;;5059296;28;20029;-80
2021/12/06 05:53:19;;;;;;;39.28;16.05;;;2.90;99.90;;;;;;5057224;28;20021;-80
2021/12/06 05:55:46;;;;;;;40.55;15.88;;;2.90;99.90;;;;;;5056742;28;20074;-81
2021/12/06 05:58:16;;;;;;;38.78;15.63;;;2.90;99.90;;;;;;5056422;28;20032;-81
2021/12/06 06:00:42;;;;;;;36.15;13.52;;;3.00;99.90;;;;;;5056384;28;20461;-81
2021/12/06 06:03:09;;;;;;;36.25;14.57;;;2.90;99.90;;;;;;5056756;28;20032;-81
2021/12/06 06:05:36;;;;;;;36.42;14.60;;;2.90;99.90;;;;;;5056034;28;20025;-80
2021/12/06 06:08:02;;;;;;;33.63;14.15;;;3.00;99.90;;;;;;5043058;28;20056;-80
2021/12/06 06:10:31;;;;;;;34.58;13.82;;;3.00;99.90;;;;;;5035877;28;20052;-80
2021/12/06 06:13:00;;;;;;;35.55;15.15;;;3.10;99.90;;;;;;5034887;28;20029;-80
2021/12/06 06:15:28;;;;;;;35.40;14.45;;;3.10;99.90;;;;;;5035807;28;20033;-81
2021/12/06 06:17:55;;;;;;;35.22;14.77;;;3.10;99.90;;;;;;5036832;28;20017;-80
2021/12/06 06:20:25;;;;;;;40.03;15.63;;;3.20;99.90;;;;;;5035733;28;20461;-80
2021/12/06 06:22:51;;;;;;;38.55;15.60;;;3.10;99.90;;;;;;5034791;28;20030;-80
2021/12/06 06:25:16;;;;;;;37.95;15.27;;;3.10;99.90;;;;;;5035528;28;20113;-81
2021/12/06 06:27:44;;;;;;;35.80;14.98;;;3.10;99.90;;;;;;5040786;28;20021;-81
2021/12/06 06:30:11;;;;;;;37.70;14.90;;;3.00;99.90;;;;;;5056545;28;20022;-80
2021/12/06 06:32:36;;;;;;;34.03;13.98;;;3.10;99.90;;;;;;5056487;28;20024;-81
2021/12/06 06:35:03;;;;;;;33.05;15.07;;;3.10;99.90;;;;;;5055739;28;20124;-81
2021/12/06 06:37:29;;;;;;;37.25;15.50;;;3.10;99.90;;;;;;5055485;28;20460;-81
2021/12/06 06:39:55;;;;;;;33.42;14.90;;;3.10;99.90;;;;;;5054352;28;20499;-81
2021/12/06 06:42:23;;;;;;;31.45;13.23;;;3.10;99.90;;;;;;5055760;28;20381;-81
2021/12/06 06:44:50;;;;;;;34.90;14.35;;;3.10;99.90;;;;;;5036164;28;20032;-81
2021/12/06 06:47:15;;;;;;;37.15;14.50;;;3.10;99.90;;;;;;5035893;28;20053;-81
2021/12/06 06:49:41;;;;;;;36.70;14.88;;;3.10;99.90;;;;;;5048776;28;20029;-81
2021/12/06 06:52:07;;;;;;;38.83;15.57;;;3.20;99.90;;;;;;5055247;28;20013;-81
2021/12/06 06:54:33;;;;;;;37.90;15.80;;;3.20;99.90;;;;;;5054985;28;20029;-81
2021/12/06 06:56:58;;;;;;;32.83;14.18;;;3.20;99.90;;;;;;5054845;28;20108;-81
2021/12/06 06:59:24;;;;;;;35.35;14.75;;;3.20;99.90;;;;;;5051512;28;20519;-81
2021/12/06 07:01:50;;;;;;;33.00;13.80;;;3.20;99.90;;;;;;5037855;28;20017;-81
2021/12/06 07:04:15;;;;;;;33.88;13.85;;;3.20;99.90;;;;;;5033899;28;20021;-78
2021/12/06 07:06:42;;;;;;;35.70;14.07;;;3.20;99.90;;;;;;5033336;28;20072;-78
2021/12/06 07:09:08;;;;;;;35.25;14.77;;;3.20;99.90;;;;;;5038341;28;20965;-79
2021/12/06 07:11:34;;;;;;;36.65;14.90;;;3.20;99.90;;;;;;5033159;28;20056;-78
2021/12/06 07:13:59;;;;;;;34.17;13.50;;;3.30;99.90;;;;;;5044994;28;20443;-78
2021/12/06 07:16:27;;;;;;;35.35;13.88;;;3.20;99.90;;;;;;5043459;28;20033;-78
2021/12/06 07:18:52;;;;;;;33.72;13.40;;;3.20;99.90;;;;;;5037264;28;20024;-78
2021/12/06 07:21:18;;;;;;;36.53;14.48;;;3.20;99.90;;;;;;5037268;28;20381;-78
2021/12/06 07:23:44;;;;;;;32.45;13.73;;;3.30;99.90;;;;;;5040279;28;20025;-79
2021/12/06 07:26:15;;;;;;;37.67;15.48;;;3.20;99.90;;;;;;5044982;28;20055;-78
2021/12/06 07:28:41;;;;;;;44.05;16.65;;;3.30;99.90;;;;;;5039008;28;20071;-79
2021/12/06 07:31:08;;;;;;;33.35;13.48;;;3.30;1.00;;;;;;5052828;28;20107;-78
2021/12/06 07:33:34;;;;;;;37.53;14.02;;;3.30;1.00;;;;;;5053986;28;20163;-78
2021/12/06 07:36:01;;;;;;;34.42;14.88;;;3.30;1.00;;;;;;5051116;28;20032;-79
2021/12/06 07:38:27;;;;;;;34.17;13.70;;;3.30;1.00;;;;;;5054233;28;20021;-78
2021/12/06 07:40:52;;;;;;;36.85;14.63;;;3.30;1.00;;;;;;5046730;28;20389;-78
2021/12/06 07:43:19;;;;;;;38.08;14.48;;;3.30;1.00;;;;;;5034148;28;20026;-79
2021/12/06 07:45:45;;;;;;;41.95;14.35;;;3.40;1.00;;;;;;5039524;28;20053;-79
2021/12/06 07:48:12;;;;;;;39.90;14.52;;;3.30;1.00;;;;;;5036938;28;20394;-78
2021/12/06 07:50:38;;;;;;;37.53;14.40;;;3.40;1.00;;;;;;5031420;28;20021;-78
2021/12/06 07:53:04;;;;;;;42.83;16.13;;;3.30;1.00;;;;;;5031436;28;20371;-78
2021/12/06 07:55:33;;;;;;;39.60;13.63;;;3.40;1.00;;;;;;5046551;28;20029;-82
2021/12/06 07:57:59;;;;;;;39.50;14.55;;;3.30;1.00;;;;;;5049542;28;20075;-81
2021/12/06 08:00:28;;;;;;;38.33;14.85;;;3.40;1.00;;;;;;5034760;28;20095;-81
2021/12/06 08:02:54;;;;;;;40.97;15.18;;;3.40;1.00;;;;;;5044530;28;20460;-81
2021/12/06 08:05:30;;;;;;;40.53;14.32;;;3.40;1.00;;;;;;5033654;28;20029;-82
2021/12/06 08:08:01;;;;;;;36.08;13.70;;;3.40;1.00;;;;;;5037410;28;20048;-82
2021/12/06 08:10:27;;;;;;;45.58;14.70;;;3.40;1.00;;;;;;5031941;28;20100;-82
2021/12/06 08:12:52;;;;;;;46.67;16.90;;;3.50;1.00;;;;;;5037398;28;20017;-82
2021/12/06 08:15:18;;;;;;;40.55;14.93;;;3.50;1.00;;;;;;5038244;28;20030;-82
2021/12/06 08:17:44;;;;;;;44.00;16.40;;;3.40;1.00;;;;;;5037802;28;20021;-82
2021/12/06 08:20:10;;;;;;;40.88;14.68;;;3.50;1.00;;;;;;5043315;28;20032;-81
2021/12/06 08:22:37;;;;;;;40.50;14.65;;;3.50;1.00;;;;;;5036180;28;20026;-82
2021/12/06 08:25:04;;;;;;;37.92;14.80;;;3.50;1.00;;;;;;5037352;28;20082;-81
2021/12/06 08:27:30;;;;;;;40.78;15.02;;;3.50;1.00;;;;;;5035400;28;20021;-81
2021/12/06 08:29:55;;;;;;;41.15;14.65;;;3.50;1.00;;;;;;5035107;28;20045;-81
2021/12/06 08:32:21;;;;;;;44.08;16.05;;;3.60;1.00;;;;;;5045853;28;20033;-81
2021/12/06 08:34:47;;;;;;;42.00;15.98;;;3.50;1.00;;;;;;5044626;28;20102;-82
2021/12/06 08:37:13;;;;;;;49.45;16.48;;;3.60;1.00;;;;;;5049210;28;20028;-82
2021/12/06 08:39:39;;;;;;;49.00;16.42;;;3.60;1.00;;;;;;5054519;28;20469;-82
2021/12/06 08:42:06;;;;;;;40.83;14.15;;;3.60;1.00;;;;;;5055191;28;20547;-82
2021/12/06 08:44:33;;;;;;;43.33;15.55;;;3.60;1.00;;;;;;5052946;28;20108;-82
2021/12/06 08:46:58;;;;;;;45.75;14.27;;;3.60;1.00;;;;;;5048029;28;20382;-82
2021/12/06 08:49:25;;;;;;;43.38;15.13;;;3.60;1.00;;;;;;5053186;28;20025;-82
2021/12/06 08:51:55;;;;;;;45.90;16.08;;;3.60;1.00;;;;;;5041445;28;20604;-82
2021/12/06 08:54:26;;;;;;;50.17;17.20;;;3.70;1.00;;;;;;5034831;28;20061;-81
2021/12/06 08:56:53;;;;;;;44.05;15.40;;;3.60;1.00;;;;;;5047104;28;20507;-82
2021/12/06 08:59:18;;;;;;;45.42;15.93;;;3.70;1.00;;;;;;5054403;28;20032;-82
2021/12/06 09:01:44;;;;;;;47.55;16.63;;;3.60;1.00;;;;;;5054012;28;20021;-82
2021/12/06 09:04:12;;;;;;;50.45;16.02;;;3.70;1.00;;;;;;5041983;28;20104;-82
2021/12/06 09:06:40;;;;;;;46.45;16.73;;;3.80;1.00;;;;;;5048473;28;20021;-82
2021/12/06 09:09:08;;;;;;;42.63;15.43;;;3.70;1.00;;;;;;5054270;28;20027;-82
2021/12/06 09:11:38;;;;;;;47.58;15.30;;;3.80;1.00;;;;;;5053324;28;20029;-82
2021/12/06 09:14:05;;;;;;;45.10;15.30;;;3.90;1.00;;;;;;5054161;28;20056;-82
2021/12/06 09:16:31;;;;;;;48.88;14.32;;;3.90;1.00;;;;;;5029513;28;20460;-82
2021/12/06 09:18:58;;;;;;;49.10;16.15;;;4.00;1.00;;;;;;5034228;28;20535;-82
2021/12/06 09:21:24;;;;;;;43.92;15.82;;;3.90;99.90;;;;;;5034335;28;20029;-82
2021/12/06 09:23:53;;;;;;;51.35;17.05;;;4.00;1.00;;;;;;5033961;28;20245;-82
2021/12/06 09:26:19;;;;;;;46.40;15.48;;;4.00;99.90;;;;;;5028119;28;20036;-82
2021/12/06 09:28:45;;;;;;;46.70;17.23;;;4.00;99.90;;;;;;5051075;28;20044;-82
2021/12/06 09:31:11;;;;;;;39.40;14.43;;;4.10;99.90;;;;;;5056983;28;20025;-82
2021/12/06 09:33:38;;;;;;;53.50;16.35;;;4.10;99.90;;;;;;5053417;28;20492;-81
2021/12/06 09:36:05;;;;;;;49.80;17.88;;;4.10;99.90;;;;;;5047862;28;20040;-82
2021/12/06 09:38:36;;;;;;;45.88;16.95;;;4.10;99.90;;;;;;5054335;28;20016;-82
2021/12/06 09:41:04;;;;;;;46.20;16.48;;;4.10;99.90;;;;;;5054370;28;20412;-82
2021/12/06 09:43:30;;;;;;;47.88;17.05;;;4.20;99.90;;;;;;5052674;28;20439;-82
2021/12/06 09:45:56;;;;;;;49.05;17.10;;;4.10;99.90;;;;;;5030833;28;20527;-82
2021/12/06 09:48:23;;;;;;;47.88;17.52;;;4.20;99.90;;;;;;5035121;28;20021;-82
2021/12/06 09:50:55;;;;;;;54.03;16.67;;;4.20;99.90;;;;;;5033518;28;20032;-82
2021/12/06 09:53:26;;;;;;;46.35;15.68;;;4.10;99.90;;;;;;5039735;28;20029;-81
2021/12/06 09:55:53;;;;;;;;;;;4.10;99.90;;;;;;5040108;28;20045;-82
2021/12/06 09:58:19;;;;;;;50.95;18.33;;;4.20;99.90;;;;;;5052306;28;19904;-82
2021/12/06 10:00:53;;;;;;;47.47;16.95;;;4.20;99.90;;;;;;5034162;28;20021;-82
2021/12/06 10:03:24;;;;;;;50.08;17.38;;;4.20;99.90;;;;;;5037601;28;20033;-82
2021/12/06 10:05:50;;;;;;;48.22;16.73;;;4.20;99.90;;;;;;5030921;28;20030;-82
2021/12/06 10:08:16;;;;;;;48.05;17.05;;;4.20;99.90;;;;;;5030836;28;20025;-82
2021/12/06 10:10:42;;;;;;;50.00;17.23;;;4.30;99.90;;;;;;5033861;28;20067;-83
2021/12/06 10:13:08;;;;;;;45.10;17.20;;;4.20;99.90;;;;;;5037882;28;20032;-83
2021/12/06 10:15:34;;;;;;;50.53;17.83;;;4.20;99.90;;;;;;5028229;28;20033;-83
2021/12/06 10:18:01;;;;;;;52.33;18.17;;;4.30;99.90;;;;;;5032098;28;20385;-83
2021/12/06 10:20:28;;;;;;;51.92;18.15;;;4.30;99.90;;;;;;5035110;28;20017;-83
2021/12/06 10:22:54;;;;;;;47.67;18.10;;;4.40;99.90;;;;;;5031477;28;20021;-83
2021/12/06 10:25:22;;;;;;;43.65;16.08;;;4.40;99.90;;;;;;5028704;28;20023;-83
2021/12/06 10:27:54;;;;;;;47.55;18.20;;;4.30;99.90;;;;;;5029290;28;20105;-83
2021/12/06 10:30:21;;;;;;;50.97;16.88;;;4.30;99.90;;;;;;5037243;28;20104;-82
2021/12/06 10:32:46;;;;;;;52.03;18.40;;;4.30;99.90;;;;;;5032469;28;20022;-83
2021/12/06 10:35:15;;;;;;;48.88;19.00;;;4.40;99.90;;;;;;5033094;28;20119;-83
2021/12/06 10:37:45;;;;;;;45.75;18.05;;;4.40;99.90;;;;;;5034524;28;20132;-83
2021/12/06 10:40:20;;;;;;;50.08;17.08;;;4.40;99.90;;;;;;5034984;28;20029;-83
2021/12/06 10:42:47;;;;;;;48.42;17.30;;;4.50;99.90;;;;;;5033988;28;20093;-83
2021/12/06 10:45:36;;;;;;;50.75;17.45;;;4.60;99.90;;;;;;5036628;28;20022;-83
2021/12/06 10:48:21;;;;;;;48.30;17.35;;;4.60;99.90;;;;;;5036162;28;20453;-82
2021/12/06 10:50:53;;;;;;;51.15;18.67;;;4.50;99.90;;;;;;5034299;28;20067;-83
2021/12/06 10:53:38;;;;;;;53.55;17.90;;;4.50;99.90;;;;;;5034775;28;20032;-83
2021/12/06 10:56:14;;;;;;;52.17;17.58;;;4.50;99.90;;;;;;5052749;28;20500;-83
2021/12/06 10:58:40;;;;;;;45.28;15.80;;;4.50;99.90;;;;;;5052094;28;20036;-83
2021/12/06 11:01:18;;;;;;;43.13;16.08;;;4.40;99.90;;;;;;5051544;28;20024;-83
2021/12/06 11:03:51;;;;;;;44.40;15.65;;;4.50;99.90;;;;;;5051086;28;20024;-84
2021/12/06 11:06:30;;;;;;;39.65;15.25;;;4.50;99.90;;;;;;5051352;28;20048;-83
2021/12/06 11:09:01;;;;;;;42.33;15.98;;;4.50;99.90;;;;;;5051079;28;20135;-83
2021/12/06 11:11:29;;;;;;;40.33;16.70;;;4.50;99.90;;;;;;5051378;28;20187;-83
2021/12/06 11:14:02;;;;;;;46.50;16.17;;;4.60;99.90;;;;;;5051177;28;20025;-83
2021/12/06 11:16:30;;;;;;;36.28;13.85;;;4.60;99.90;;;;;;5051996;28;20025;-83
2021/12/06 11:19:20;;;;;;;44.97;16.27;;;4.60;99.90;;;;;;5052431;28;20024;-83
2021/12/06 11:21:57;;;;;;;36.22;14.13;;;4.60;99.90;;;;;;5049223;28;20037;-83
2021/12/06 11:24:39;;;;;;;40.53;16.10;;;4.70;99.90;;;;;;5052563;28;20033;-83
2021/12/06 11:27:24;;;;;;;48.80;16.45;;;4.60;99.90;;;;;;5050889;28;20021;-83
2021/12/06 11:30:03;;;;;;;47.60;16.98;;;4.60;99.90;;;;;;5034904;28;20037;-83
2021/12/06 11:32:34;;;;;;;47.80;17.00;;;4.50;99.90;;;;;;5034816;28;20024;-83
2021/12/06 11:35:33;;;;;;;48.08;17.38;;;4.70;99.90;;;;;;5040171;28;20075;-82
2021/12/06 11:38:03;;;;;;;47.45;17.52;;;4.60;99.90;;;;;;5033569;28;20041;-83
2021/12/06 11:40:35;;;;;;;42.53;16.98;;;4.60;99.90;;;;;;5033379;28;20500;-83
2021/12/06 11:43:14;;;;;;;45.90;16.17;;;4.60;99.90;;;;;;5029112;28;20044;-82
2021/12/06 11:45:48;;;;;;;46.35;17.42;;;4.70;99.90;;;;;;5039813;28;20105;-82
2021/12/06 11:48:21;;;;;;;45.92;18.38;;;4.70;99.90;;;;;;5042110;28;20091;-83
2021/12/06 11:50:54;;;;;;;45.53;17.17;;;4.70;99.90;;;;;;5034155;28;20017;-82
2021/12/06 11:53:24;;;;;;;54.28;18.15;;;4.70;99.90;;;;;;5030661;28;20021;-81
2021/12/06 11:55:54;;;;;;;51.35;18.58;;;4.70;99.90;;;;;;5032899;28;20057;-82
2021/12/06 11:58:25;;;;;;;49.55;16.48;;;4.70;99.90;;;;;;5030393;28;20440;-82
2021/12/06 12:01:19;;;;;;;51.00;19.92;;;4.60;99.90;;;;;;5036457;28;20119;-82
2021/12/06 12:03:51;;;;;;;49.20;17.42;;;4.60;99.90;;;;;;5030516;28;20021;-82
2021/12/06 12:06:44;;;;;;;53.10;19.17;;;4.60;99.90;;;;;;5030898;28;20120;-83
2021/12/06 12:09:19;;;;;;;49.70;17.20;;;4.60;99.90;;;;;;5035720;28;20037;-82
2021/12/06 12:12:02;;;;;;;40.67;16.33;;;4.60;99.90;;;;;;5035434;28;20104;-83
2021/12/06 12:14:43;;;;;;;40.75;15.55;;;4.60;99.90;;;;;;5030660;28;20086;-82
2021/12/06 12:17:29;;;;;;;43.53;16.67;;;4.60;99.90;;;;;;5033355;28;20090;-82
2021/12/06 12:19:57;;;;;;;39.90;15.63;;;4.60;99.90;;;;;;5032749;28;20474;-82
2021/12/06 12:22:25;;;;;;;39.90;14.60;;;4.60;99.90;;;;;;5031040;28;20025;-82
2021/12/06 12:24:56;;;;;;;35.78;15.20;;;4.60;99.90;;;;;;5030895;28;20104;-82
2021/12/06 12:30:07;;;;;;;41.88;17.05;;;4.90;99.90;;;;;;5037168;28;20052;-83
2021/12/06 12:32:33;;;;;;;45.47;17.85;;;4.80;99.90;;;;;;5031083;28;20026;-82
2021/12/06 12:35:02;;;;;;;49.88;19.08;;;4.70;99.90;;;;;;5036260;28;20052;-82
2021/12/06 12:37:28;;;;;;;48.92;18.00;;;4.80;99.90;;;;;;5049252;28;20425;-83
2021/12/06 12:40:02;;;;;;;38.22;15.07;;;4.90;99.90;;;;;;5041073;28;20124;-82
2021/12/06 12:42:28;;;;;;;51.75;19.75;;;4.90;99.90;;;;;;5036147;28;20040;-82
2021/12/06 12:44:57;;;;;;;48.03;18.83;;;5.00;99.90;;;;;;5035918;28;20029;-82
2021/12/06 12:47:32;;;;;;;48.40;20.98;;;5.00;99.90;;;;;;5051301;28;20051;-83
2021/12/06 12:50:05;;;;;;;49.97;19.33;;;4.90;99.90;;;;;;5043243;28;20500;-82
2021/12/06 12:52:45;;;;;;;43.00;17.58;;;5.00;99.90;;;;;;5033702;28;20097;-83
2021/12/06 12:55:29;;;;;;;53.92;19.52;;;5.00;99.90;;;;;;5034686;28;20040;-82
2021/12/06 12:58:10;;;;;;;53.40;20.75;;;4.90;99.90;;;;;;5051305;28;20021;-82
2021/12/06 13:00:49;;;;;;;48.90;19.95;;;4.90;99.90;;;;;;5054180;28;20079;-82
2021/12/06 13:03:40;;;;;;;43.67;17.33;;;4.90;99.90;;;;;;5037781;28;20021;-83